createdAt,value
2022-11-29T00:01:37.708Z,101894.25
2022-11-29T00:04:05.397Z,101881.84
2022-11-29T00:06:34.726Z,101888.78
2022-11-29T00:09:06.993Z,101880.06
2022-11-29T00:11:54.646Z,101879.47
2022-11-29T00:14:23.340Z,101870.69
2022-11-29T00:16:55.461Z,101881.13
2022-11-29T00:19:22.836Z,101871.09
2022-11-29T00:21:49.993Z,101889.31
2022-11-29T00:24:17.741Z,101873.84
2022-11-29T00:26:44.736Z,101865.06
2022-11-29T00:29:13.119Z,101869.84
2022-11-29T00:32:10.650Z,101863.06
2022-11-29T00:34:37.757Z,101865.25
2022-11-29T00:37:04.747Z,101854.59
2022-11-29T00:39:31.911Z,101859.06
2022-11-29T00:41:59.094Z,101860.97
2022-11-29T00:44:26.050Z,101865.59
2022-11-29T00:46:53.126Z,101864.91
2022-11-29T00:49:20.196Z,101868.38
2022-11-29T00:51:47.788Z,101867.22
2022-11-29T00:54:14.993Z,101863.84
2022-11-29T00:56:42.362Z,101869.38
2022-11-29T00:59:11.839Z,101860.59
2022-11-29T01:01:41.236Z,101863.44
2022-11-29T01:04:10.159Z,101879.22
2022-11-29T01:06:37.155Z,101865.47
2022-11-29T01:09:05.260Z,101860.88
2022-11-29T01:11:34.022Z,101850.66
2022-11-29T01:14:02.288Z,101861.13
2022-11-29T01:16:33.320Z,101869.53
2022-11-29T01:19:00.656Z,101857.91
2022-11-29T01:21:28.144Z,101849.81
2022-11-29T01:23:55.518Z,101838.56
2022-11-29T01:26:29.413Z,101854.72
2022-11-29T01:28:58.307Z,101857.97
2022-11-29T01:31:32.475Z,101861.03
2022-11-29T01:34:01.361Z,101837.44
2022-11-29T01:36:28.926Z,101848.97
2022-11-29T01:38:56.504Z,101858.38
2022-11-29T01:41:29.551Z,101869.97
2022-11-29T01:44:26.172Z,101857.75
2022-11-29T01:46:54.661Z,101854.28
2022-11-29T01:49:27.419Z,101851.94
2022-11-29T01:52:05.771Z,101855.34
2022-11-29T01:54:37.192Z,101867.88
2022-11-29T01:57:07.358Z,101867.72
2022-11-29T01:59:36.910Z,101878.75
2022-11-29T02:02:13.060Z,101864.28
2022-11-29T02:04:43.781Z,101866.97
2022-11-29T02:07:11.436Z,101871.09
2022-11-29T02:09:41.187Z,101854.06
2022-11-29T02:12:20.284Z,101866.44
2022-11-29T02:15:15.008Z,101865.69
2022-11-29T02:18:08.235Z,101872.03
2022-11-29T02:20:47.601Z,101865.88
2022-11-29T02:23:50.204Z,101869.69
2022-11-29T02:26:54.371Z,101876.16
2022-11-29T02:29:45.767Z,101875.31
2022-11-29T02:32:50.434Z,101888.88
2022-11-29T02:35:23.446Z,101878.34
2022-11-29T02:37:59.621Z,101892.59
2022-11-29T02:40:29.342Z,101877.50
2022-11-29T02:43:02.127Z,101875.53
2022-11-29T02:45:29.067Z,101872.50
2022-11-29T02:48:29.296Z,101881.38
2022-11-29T02:51:18.279Z,101878.63
2022-11-29T02:54:26.554Z,101892.72
2022-11-29T02:57:04.665Z,101867.72
2022-11-29T02:59:47.262Z,101881.22
2022-11-29T03:02:30.763Z,101883.88
2022-11-29T03:05:36.102Z,101901.31
2022-11-29T03:08:06.157Z,101875.50
2022-11-29T03:10:52.471Z,101874.91
2022-11-29T03:13:53.386Z,101875.03
2022-11-29T03:16:43.282Z,101885.97
2022-11-29T03:19:38.272Z,101883.00
2022-11-29T03:22:20.174Z,101893.75
2022-11-29T03:25:06.196Z,101881.72
2022-11-29T03:27:47.694Z,101881.44
2022-11-29T03:30:18.911Z,101870.28
2022-11-29T03:32:45.976Z,101882.19
2022-11-29T03:35:25.767Z,101879.53
2022-11-29T03:37:55.573Z,101894.19
2022-11-29T03:40:30.061Z,101879.06
2022-11-29T03:43:09.273Z,101886.63
2022-11-29T03:45:44.689Z,101892.53
2022-11-29T03:48:33.218Z,101893.13
2022-11-29T03:51:07.533Z,101895.91
2022-11-29T03:53:50.299Z,101897.84
2022-11-29T03:56:38.798Z,101898.81
2022-11-29T03:59:30.457Z,101901.66
2022-11-29T04:02:31.613Z,101907.94
2022-11-29T04:05:10.719Z,101900.16
2022-11-29T04:07:56.184Z,101905.50
2022-11-29T04:11:00.317Z,101905.59
2022-11-29T04:13:48.292Z,101911.56
2022-11-29T04:16:36.553Z,101895.78
2022-11-29T04:19:21.976Z,101917.72
2022-11-29T04:22:23.335Z,101916.97
2022-11-29T04:24:56.311Z,101929.28
2022-11-29T04:27:35.569Z,101922.41
2022-11-29T04:30:12.046Z,101918.56
2022-11-29T04:32:42.013Z,101912.38
2022-11-29T04:35:39.975Z,101917.09
2022-11-29T04:38:37.700Z,101917.81
2022-11-29T04:41:27.877Z,101911.75
2022-11-29T04:44:15.633Z,101913.03
2022-11-29T04:47:06.332Z,101911.19
2022-11-29T04:50:01.400Z,101919.63
2022-11-29T04:52:41.886Z,101932.19
2022-11-29T04:55:38.990Z,101929.56
2022-11-29T04:58:36.021Z,101939.94
2022-11-29T05:01:15.421Z,101943.53
2022-11-29T05:04:06.216Z,101939.69
2022-11-29T05:06:43.558Z,101940.34
2022-11-29T05:09:16.684Z,101947.88
2022-11-29T05:12:00.741Z,101968.34
2022-11-29T05:14:46.366Z,101965.78
2022-11-29T05:17:34.690Z,101967.63
2022-11-29T05:20:17.049Z,101966.06
2022-11-29T05:23:04.691Z,101962.28
2022-11-29T05:25:39.914Z,101966.13
2022-11-29T05:28:20.683Z,101961.38
2022-11-29T05:31:02.936Z,101972.00
2022-11-29T05:33:51.972Z,101966.75
2022-11-29T05:36:46.628Z,101972.56
2022-11-29T05:39:31.910Z,101967.06
2022-11-29T05:42:29.329Z,101972.00
2022-11-29T05:45:09.989Z,101964.78
2022-11-29T05:47:47.171Z,101964.16
2022-11-29T05:50:19.165Z,101979.88
2022-11-29T05:52:57.639Z,101974.72
2022-11-29T05:55:45.137Z,101979.22
2022-11-29T05:58:28.613Z,101981.00
2022-11-29T06:01:23.139Z,101980.22
2022-11-29T06:03:53.091Z,101970.75
2022-11-29T06:06:31.570Z,101985.34
2022-11-29T06:09:50.118Z,101980.41
2022-11-29T06:12:22.077Z,101988.94
2022-11-29T06:15:17.342Z,101994.22
2022-11-29T06:18:31.244Z,101990.91
2022-11-29T06:21:23.960Z,101994.44
2022-11-29T06:24:29.942Z,101998.81
2022-11-29T06:27:14.921Z,101998.06
2022-11-29T06:29:50.133Z,102005.28
2022-11-29T06:32:30.696Z,102007.31
2022-11-29T06:35:35.170Z,101997.59
2022-11-29T06:38:24.372Z,102014.72
2022-11-29T06:40:57.229Z,102017.19
2022-11-29T06:43:27.545Z,102021.59
2022-11-29T06:46:05.924Z,102014.81
2022-11-29T06:48:48.685Z,102021.53
2022-11-29T06:51:34.644Z,102020.34
2022-11-29T06:54:12.802Z,102038.03
2022-11-29T06:56:52.344Z,102030.63
2022-11-29T06:59:57.202Z,102023.44
2022-11-29T07:03:03.174Z,102032.41
2022-11-29T07:05:39.446Z,102023.75
2022-11-29T07:08:18.937Z,102032.50
2022-11-29T07:10:51.468Z,102025.88
2022-11-29T07:13:23.765Z,102029.19
2022-11-29T07:15:53.737Z,102024.59
2022-11-29T07:18:35.121Z,102023.75
2022-11-29T07:21:11.149Z,102028.06
2022-11-29T07:24:25.762Z,102032.69
2022-11-29T07:27:07.711Z,102028.69
2022-11-29T07:29:47.965Z,102037.19
2022-11-29T07:32:24.016Z,102029.69
2022-11-29T07:35:00.599Z,102034.34
2022-11-29T07:37:52.242Z,102033.50
2022-11-29T07:40:37.949Z,102036.97
2022-11-29T07:43:17.636Z,102036.31
2022-11-29T07:45:46.056Z,102034.72
2022-11-29T07:48:13.738Z,102041.66
2022-11-29T07:50:41.255Z,102033.50
2022-11-29T07:53:18.765Z,102044.03
2022-11-29T07:55:46.659Z,102037.84
2022-11-29T07:58:15.723Z,102035.94
2022-11-29T08:00:46.624Z,102035.84
2022-11-29T08:03:16.566Z,102040.94
2022-11-29T08:05:52.134Z,102034.00
2022-11-29T08:08:19.360Z,102044.19
2022-11-29T08:10:46.617Z,102035.84
2022-11-29T08:13:16.934Z,102037.00
2022-11-29T08:15:47.409Z,102037.75
2022-11-29T08:18:15.566Z,102032.66
2022-11-29T08:20:52.214Z,102035.19
2022-11-29T08:23:33.654Z,102034.94
2022-11-29T08:26:01.502Z,102042.69
2022-11-29T08:28:28.484Z,102036.56
2022-11-29T08:31:07.310Z,102033.81
2022-11-29T08:33:41.838Z,102028.13
2022-11-29T08:36:16.692Z,102038.06
2022-11-29T08:38:45.069Z,102031.25
2022-11-29T08:41:15.134Z,102023.34
2022-11-29T08:43:42.486Z,102021.25
2022-11-29T08:46:12.460Z,102034.31
2022-11-29T08:48:43.898Z,102032.16
2022-11-29T08:51:41.659Z,102026.94
2022-11-29T08:54:17.406Z,102047.00
2022-11-29T08:59:31.427Z,102046.94
2022-11-29T09:01:58.596Z,102034.78
2022-11-29T09:04:25.683Z,102041.47
2022-11-29T09:06:52.638Z,102034.53
2022-11-29T09:09:19.939Z,102034.88
2022-11-29T09:15:59.373Z,102032.38
2022-11-29T09:18:28.829Z,102028.19
2022-11-29T09:20:55.795Z,102040.59
2022-11-29T09:23:22.764Z,102040.59
2022-11-29T09:25:53.956Z,102047.41
2022-11-29T09:28:20.945Z,102040.78
2022-11-29T09:30:47.925Z,102032.06
2022-11-29T09:33:16.048Z,102040.94
2022-11-29T09:35:43.236Z,102036.13
2022-11-29T09:38:14.324Z,102040.53
2022-11-29T09:41:32.166Z,102032.88
2022-11-29T09:44:27.215Z,102039.31
2022-11-29T09:47:21.764Z,102031.22
2022-11-29T09:50:07.374Z,102031.50
2022-11-29T09:52:55.303Z,102027.44
2022-11-29T09:55:43.100Z,102023.53
2022-11-29T09:58:15.898Z,102018.50
2022-11-29T10:00:50.381Z,102028.56
2022-11-29T10:03:21.097Z,102017.47
2022-11-29T10:05:55.335Z,102018.75
2022-11-29T10:08:47.239Z,102023.84
2022-11-29T10:11:35.964Z,102021.72
2022-11-29T10:14:14.180Z,102017.19
2022-11-29T10:17:13.455Z,102018.06
2022-11-29T10:19:50.886Z,102022.69
2022-11-29T10:22:27.507Z,102019.72
2022-11-29T10:24:59.258Z,102009.84
2022-11-29T10:27:29.671Z,102007.66
2022-11-29T10:30:02.992Z,102012.72
2022-11-29T10:32:32.542Z,102000.25
2022-11-29T10:35:01.146Z,101992.47
2022-11-29T10:37:32.968Z,102002.94
2022-11-29T10:40:04.587Z,102015.06
2022-11-29T10:42:52.111Z,102015.81
2022-11-29T10:45:34.035Z,102023.78
2022-11-29T10:48:09.861Z,102010.38
2022-11-29T10:50:39.623Z,102012.38
2022-11-29T10:53:12.756Z,102009.84
2022-11-29T10:55:53.595Z,102009.00
2022-11-29T10:58:28.708Z,102016.13
2022-11-29T11:01:07.644Z,102019.13
2022-11-29T11:03:41.980Z,102007.38
2022-11-29T11:06:11.562Z,102018.91
2022-11-29T11:08:42.588Z,102007.72
2022-11-29T11:11:10.951Z,102026.97
2022-11-29T11:13:39.484Z,102012.34
2022-11-29T11:16:18.233Z,102016.53
2022-11-29T11:18:47.025Z,102005.81
2022-11-29T11:21:18.154Z,102013.53
2022-11-29T11:23:54.276Z,102000.56
2022-11-29T11:26:22.258Z,101998.19
2022-11-29T11:28:52.152Z,102012.13
2022-11-29T11:31:33.036Z,102017.34
2022-11-29T11:34:29.654Z,102015.47
2022-11-29T11:37:14.954Z,102008.69
2022-11-29T11:39:59.358Z,102004.84
2022-11-29T11:42:38.361Z,102010.72
2022-11-29T11:45:16.409Z,102005.88
2022-11-29T11:47:46.778Z,102010.84
2022-11-29T11:50:38.260Z,102010.38
2022-11-29T11:53:37.376Z,102018.63
2022-11-29T11:56:12.878Z,102019.72
2022-11-29T11:58:45.862Z,102008.16
2022-11-29T12:01:12.764Z,102019.25
2022-11-29T12:03:59.124Z,102025.75
2022-11-29T12:06:54.454Z,102005.69
2022-11-29T12:09:40.810Z,102022.09
2022-11-29T12:12:30.107Z,102018.81
2022-11-29T12:15:08.419Z,102026.75
2022-11-29T12:18:01.211Z,102017.56
2022-11-29T12:20:37.162Z,102031.47
2022-11-29T12:23:07.258Z,102024.81
2022-11-29T12:25:48.780Z,102026.88
2022-11-29T12:28:20.583Z,102017.59
2022-11-29T12:31:21.572Z,102025.31
2022-11-29T12:34:22.401Z,102035.81
2022-11-29T12:37:14.071Z,102034.28
2022-11-29T12:39:41.213Z,102038.81
2022-11-29T12:42:37.220Z,102041.47
2022-11-29T12:45:16.422Z,102036.34
2022-11-29T12:47:54.193Z,102031.34
2022-11-29T12:50:58.836Z,102039.19
2022-11-29T12:53:53.912Z,102045.25
2022-11-29T12:56:24.168Z,102047.97
2022-11-29T12:59:18.815Z,102051.56
2022-11-29T13:02:20.046Z,102044.72
2022-11-29T13:05:22.114Z,102042.13
2022-11-29T13:07:58.281Z,102050.00
2022-11-29T13:10:29.975Z,102040.56
2022-11-29T13:13:07.429Z,102043.03
2022-11-29T13:15:54.820Z,102033.63
2022-11-29T13:18:50.679Z,102031.63
2022-11-29T13:21:29.388Z,102039.53
2022-11-29T13:24:10.087Z,102039.66
2022-11-29T13:26:42.094Z,102040.63
2022-11-29T13:29:16.710Z,102042.38
2022-11-29T13:31:51.658Z,102036.25
2022-11-29T13:35:10.686Z,102048.63
2022-11-29T13:38:22.180Z,102047.75
2022-11-29T13:40:56.549Z,102046.00
2022-11-29T13:43:45.550Z,102040.81
2022-11-29T13:46:26.606Z,102044.31
2022-11-29T13:48:54.897Z,102047.72
2022-11-29T13:51:42.025Z,102042.47
2022-11-29T13:54:33.090Z,102040.63
2022-11-29T13:57:11.060Z,102037.19
2022-11-29T13:59:47.129Z,102041.69
2022-11-29T14:02:30.989Z,102037.25
2022-11-29T14:05:02.008Z,102037.19
2022-11-29T14:07:31.013Z,102043.22
2022-11-29T14:10:07.388Z,102030.34
2022-11-29T14:12:49.457Z,102039.97
2022-11-29T14:15:51.236Z,102039.13
2022-11-29T14:18:36.813Z,102048.72
2022-11-29T14:21:10.149Z,102042.72
2022-11-29T14:23:46.947Z,102044.50
2022-11-29T14:26:28.517Z,102035.06
2022-11-29T14:28:56.943Z,102040.31
2022-11-29T14:31:59.609Z,102055.06
2022-11-29T14:34:35.221Z,102048.94
2022-11-29T14:37:39.806Z,102042.00
2022-11-29T14:40:20.852Z,102044.72
2022-11-29T14:42:48.862Z,102049.06
2022-11-29T14:45:31.693Z,102037.78
2022-11-29T14:47:59.494Z,102037.75
2022-11-29T14:50:38.691Z,102041.25
2022-11-29T14:53:33.435Z,102036.22
2022-11-29T14:56:43.679Z,102047.44
2022-11-29T14:59:48.446Z,102048.31
2022-11-29T15:02:38.144Z,102055.34
2022-11-29T15:05:31.628Z,102052.66
2022-11-29T15:08:31.801Z,102050.97
2022-11-29T15:11:12.878Z,102058.91
2022-11-29T15:13:55.192Z,102052.88
2022-11-29T15:16:46.607Z,102024.38
2022-11-29T15:19:56.051Z,102063.22
2022-11-29T15:23:34.626Z,102055.50
2022-11-29T15:26:01.674Z,102045.13
2022-11-29T15:28:29.909Z,102059.91
2022-11-29T15:31:09.257Z,102058.97
2022-11-29T15:33:40.423Z,102061.63
2022-11-29T15:36:13.400Z,102057.34
2022-11-29T15:38:46.757Z,102057.44
2022-11-29T15:41:32.407Z,102054.00
2022-11-29T15:44:03.981Z,102058.31
2022-11-29T15:46:33.390Z,102068.75
2022-11-29T15:49:22.532Z,102048.00
2022-11-29T15:51:55.971Z,102049.69
2022-11-29T15:54:38.478Z,102042.84
2022-11-29T15:57:13.184Z,102054.09
2022-11-29T15:59:55.552Z,102053.25
2022-11-29T16:02:30.589Z,102038.50
2022-11-29T16:05:03.427Z,102040.25
2022-11-29T16:07:34.463Z,102036.75
2022-11-29T16:10:26.451Z,102043.69
2022-11-29T16:13:02.603Z,102034.16
2022-11-29T16:15:39.384Z,102041.06
2022-11-29T16:18:22.344Z,102038.47
2022-11-29T16:21:01.169Z,102042.81
2022-11-29T16:23:41.406Z,102047.13
2022-11-29T16:26:14.949Z,102054.94
2022-11-29T16:28:45.160Z,102047.16
2022-11-29T16:31:38.002Z,102057.50
2022-11-29T16:34:10.020Z,102056.66
2022-11-29T16:36:38.335Z,102062.66
2022-11-29T16:39:16.069Z,102064.38
2022-11-29T16:41:43.148Z,102064.34
2022-11-29T16:44:47.059Z,102061.66
2022-11-29T16:47:23.197Z,102046.91
2022-11-29T16:50:17.842Z,102052.06
2022-11-29T16:52:45.344Z,102051.31
2022-11-29T16:55:16.140Z,102049.56
2022-11-29T16:57:44.942Z,102049.56
2022-11-29T17:00:28.822Z,102056.41
2022-11-29T17:02:55.986Z,102053.88
2022-11-29T17:05:26.707Z,102056.41
2022-11-29T17:07:55.955Z,102055.59
2022-11-29T17:10:31.210Z,102051.25
2022-11-29T17:12:58.452Z,102045.22
2022-11-29T17:15:25.434Z,102051.16
2022-11-29T17:17:52.588Z,102043.25
2022-11-29T17:20:19.647Z,102043.28
2022-11-29T17:22:46.726Z,102043.28
2022-11-29T17:25:14.986Z,102042.34
2022-11-29T17:27:42.015Z,102035.47
2022-11-29T17:30:11.524Z,102040.63
2022-11-29T17:32:41.086Z,102034.66
2022-11-29T17:35:08.329Z,102049.38
2022-11-29T17:37:37.697Z,102041.53
2022-11-29T17:40:05.944Z,102022.72
2022-11-29T17:42:33.912Z,102052.84
2022-11-29T17:45:03.523Z,102031.22
2022-11-29T17:48:06.624Z,102032.09
2022-11-29T17:50:37.196Z,102040.75
2022-11-29T17:53:08.408Z,102022.59
2022-11-29T17:55:37.333Z,102045.84
2022-11-29T17:58:04.312Z,102046.72
2022-11-29T18:00:31.445Z,102042.53
2022-11-29T18:02:59.166Z,102058.94
2022-11-29T18:05:34.689Z,102058.88
2022-11-29T18:08:02.312Z,102054.50
2022-11-29T18:10:29.407Z,102067.50
2022-11-29T18:12:56.534Z,102067.53
2022-11-29T18:15:24.024Z,102052.75
2022-11-29T18:17:51.084Z,102045.88
2022-11-29T18:20:18.189Z,102052.00
2022-11-29T18:22:45.322Z,102063.19
2022-11-29T18:25:37.554Z,102062.28
2022-11-29T18:27:59.536Z,102060.69
2022-11-29T18:30:26.569Z,102064.13
2022-11-29T18:32:53.789Z,102051.16
2022-11-29T18:35:20.920Z,102057.28
2022-11-29T18:38:14.118Z,102059.00
2022-11-29T18:40:42.587Z,102053.88
2022-11-29T18:43:10.740Z,102051.28
2022-11-29T18:45:38.903Z,102054.84
2022-11-29T18:48:07.293Z,102059.16
2022-11-29T18:50:34.558Z,102062.63
2022-11-29T18:53:01.782Z,102054.00
2022-11-29T18:55:28.868Z,102057.50
2022-11-29T18:57:58.921Z,102047.03
2022-11-29T19:00:26.560Z,102059.22
2022-11-29T19:02:56.632Z,102056.63
2022-11-29T19:05:26.872Z,102039.31
2022-11-29T19:07:58.664Z,102041.00
2022-11-29T19:10:26.123Z,102053.06
2022-11-29T19:12:53.273Z,102053.06
2022-11-29T19:15:20.439Z,102046.22
2022-11-29T19:17:47.603Z,102046.16
2022-11-29T19:20:14.723Z,102033.97
2022-11-29T19:22:42.409Z,102049.50
2022-11-29T19:25:12.308Z,102047.78
2022-11-29T19:27:40.357Z,102020.13
2022-11-29T19:30:08.490Z,102038.28
2022-11-29T19:32:36.410Z,102050.34
2022-11-29T19:35:03.657Z,102050.34
2022-11-29T19:37:30.942Z,102048.63
2022-11-29T19:40:00.081Z,102053.81
2022-11-29T19:42:27.378Z,102057.19
2022-11-29T19:45:15.764Z,102045.06
2022-11-29T19:47:43.262Z,102055.47
2022-11-29T19:50:10.364Z,102052.84
2022-11-29T19:52:39.554Z,102058.06
2022-11-29T19:55:06.645Z,102058.06
2022-11-29T19:57:33.740Z,102065.00
2022-11-29T20:00:01.286Z,102065.91
2022-11-29T20:02:30.765Z,102060.69
2022-11-29T20:04:58.310Z,102053.72
2022-11-29T20:07:26.040Z,102058.88
2022-11-29T20:09:56.097Z,102057.03
2022-11-29T20:12:23.219Z,102060.59
2022-11-29T20:14:50.223Z,102057.97
2022-11-29T20:17:17.521Z,102054.53
2022-11-29T20:19:44.901Z,102057.13
2022-11-29T20:22:12.093Z,102057.13
2022-11-29T20:24:45.018Z,102064.91
2022-11-29T20:27:37.142Z,102051.06
2022-11-29T20:30:05.004Z,102056.25
2022-11-29T20:32:32.071Z,102060.56
2022-11-29T20:35:00.597Z,102058.78
2022-11-29T20:37:38.814Z,102057.94
2022-11-29T20:40:11.134Z,102059.66
2022-11-29T20:43:39.551Z,102055.34
2022-11-29T20:46:10.923Z,102051.84
2022-11-29T20:48:48.354Z,102054.41
2022-11-29T20:51:17.225Z,102047.50
2022-11-29T20:53:46.315Z,102055.28
2022-11-29T20:56:13.406Z,102055.31
2022-11-29T20:58:40.823Z,102052.66
2022-11-29T21:01:08.388Z,102062.19
2022-11-29T21:03:35.840Z,102046.72
2022-11-29T21:06:05.368Z,102051.88
2022-11-29T21:08:35.983Z,102060.59
2022-11-29T21:11:09.203Z,102065.81
2022-11-29T21:13:37.227Z,102061.53
2022-11-29T21:16:04.826Z,102065.03
2022-11-29T21:18:32.373Z,102071.97
2022-11-29T21:21:21.081Z,102068.47
2022-11-29T21:24:18.969Z,102071.03
2022-11-29T21:26:52.562Z,102067.53
2022-11-29T21:29:22.287Z,102069.19
2022-11-29T21:31:51.821Z,102073.59
2022-11-29T21:34:19.683Z,102074.38
2022-11-29T21:36:55.918Z,102077.81
2022-11-29T21:39:27.437Z,102072.56
2022-11-29T21:41:54.689Z,102082.97
2022-11-29T21:44:21.817Z,102084.69
2022-11-29T21:46:48.998Z,102081.28
2022-11-29T21:49:16.009Z,102075.19
2022-11-29T21:51:43.202Z,102070.81
2022-11-29T21:54:10.304Z,102076.84
2022-11-29T21:56:37.450Z,102079.41
2022-11-29T21:59:04.668Z,102069.81
2022-11-29T22:01:33.878Z,102070.69
2022-11-29T22:04:01.469Z,102060.31
2022-11-29T22:06:32.199Z,102070.75
2022-11-29T22:09:00.097Z,102071.63
2022-11-29T22:11:35.580Z,102069.94
2022-11-29T22:14:18.039Z,102082.81
2022-11-29T22:16:47.002Z,102076.84
2022-11-29T22:19:17.094Z,102075.28
2022-11-29T22:21:47.521Z,102078.81
2022-11-29T22:24:16.781Z,102077.19
2022-11-29T22:26:44.141Z,102080.72
2022-11-29T22:29:14.303Z,102084.19
2022-11-29T22:31:46.985Z,102081.63
2022-11-29T22:34:14.674Z,102075.66
2022-11-29T22:36:42.444Z,102075.69
2022-11-29T22:39:09.496Z,102074.84
2022-11-29T22:41:38.161Z,102078.31
2022-11-29T22:44:06.276Z,102075.72
2022-11-29T22:46:35.523Z,102080.09
2022-11-29T22:49:03.940Z,102083.59
2022-11-29T22:51:33.434Z,102069.00
2022-11-29T22:54:03.238Z,102078.47
2022-11-29T22:56:33.552Z,102079.38
2022-11-29T22:59:00.613Z,102078.50
2022-11-29T23:01:29.460Z,102074.16
2022-11-29T23:03:58.634Z,102084.53
2022-11-29T23:06:26.840Z,102080.22
2022-11-29T23:08:56.124Z,102081.94
2022-11-29T23:11:26.759Z,102081.94
2022-11-29T23:13:54.279Z,102090.59
2022-11-29T23:16:24.086Z,102088.81
2022-11-29T23:18:52.032Z,102089.69
2022-11-29T23:21:25.601Z,102088.78
2022-11-29T23:23:56.317Z,102090.50
2022-11-29T23:26:37.629Z,102088.72
2022-11-29T23:29:16.414Z,102096.50
2022-11-29T23:31:44.231Z,102089.59
2022-11-29T23:34:11.897Z,102090.47
2022-11-29T23:36:39.081Z,102093.91
2022-11-29T23:39:07.154Z,102086.16
2022-11-29T23:41:35.799Z,102086.16
2022-11-29T23:44:04.534Z,102085.34
2022-11-29T23:46:31.722Z,102085.34
2022-11-29T23:48:58.754Z,102079.31
2022-11-29T23:51:25.837Z,102074.09
2022-11-29T23:53:53.998Z,102081.88
2022-11-29T23:56:22.541Z,102074.09
2022-11-29T23:58:49.993Z,102080.09
